To NAV CANADA Home Page Login to a new session Search on AWWS site Disclaimer Vers la page française équivalente Tips FAQ What's new on the site To the Forecasts and Observations / NOTAM section To "File a Flight Plan" website Publications and other links Update of the User's profile FIC Telephone Numbers My Weather Data Folder Route Weather Data Regional Weather Data Local Weather Data To the Forecasts and Observations / NOTAM section
Request Generated 10/19/2018 at 15:31:09 UTC . Weather information available at that time is displayed.

METAR/TAF

QIKIQTARJUAQ/NU    (show WxCam)

METAR CYVM 191500Z VRB02KT 15SM FEW011 OVC037 M06/M10 A2974 RMK SC1SC8 SC TR INTMT -SN SLP072=
METAR CYVM 191500Z CCA VRB02KT 15SM FEW011 OVC037 M06/M10 A2974 RMK SC1SC8 SC TR INTMT -SN DIST HW NW-N SLP072=
METAR CYVM 191400Z 12004KT 080V140 12SM -SN FEW011 OVC039 M06/M10 A2974 RMK SC1SC8 SC TR SUN DIMLY VISBL SLP074=
SPECI CYVM 191325Z VRB02KT 12SM -SN FEW015 OVC039 M06/M10 A2975 RMK SC1SC8 SC TR SLP076=
METAR CYVM 191300Z VRB02KT 12SM FEW015 OVC039 M07/M10 A2975 RMK SC1SC8 SC TR SLP078=

TAF CYVM 191238Z 1913/2001 19005KT P6SM BKN030 TEMPO 1913/2001 P6SM
-SN
RMK NXT FCST BY 191900Z=
Your time UTC time
Weather data provided by Environment Canada and NAV CANADA